Time;durP1;ratioP1;P1;durP2;ratioP2;P2;SDS_P1;SDS_P2;PMS_P1;PMS_P2;Temp;Humidity;BMP_temperature;BMP_pressure;BME280_temperature;BME280_humidity;BME280_pressure;Samples;Min_cycle;Max_cycle;Signal;HPM_P1;HPM_P2
2021/01/03 00:04:44;;;;;;;51.23;19.70;;;;;;;0.80;95.85;100652.05;3442550;83;33285;-83
2021/01/03 00:09:45;;;;;;;58.70;24.23;;;;;;;0.85;95.72;100653.28;3420229;82;98764;-83
2021/01/03 00:14:46;;;;;;;56.27;20.63;;;;;;;0.75;95.63;100648.09;3436172;82;33361;-82
2021/01/03 00:19:47;;;;;;;59.07;24.10;;;;;;;0.71;95.86;100647.91;3428313;82;98502;-83
2021/01/03 00:24:48;;;;;;;56.77;21.07;;;;;;;0.64;95.82;100652.15;3425124;83;33938;-83
2021/01/03 00:29:49;;;;;;;61.27;22.00;;;;;;;0.57;95.94;100651.78;3430845;82;98518;-83
2021/01/03 00:34:50;;;;;;;62.30;22.43;;;;;;;0.56;96.04;100661.80;3437928;83;29617;-81
2021/01/03 00:39:51;;;;;;;62.47;21.73;;;;;;;0.55;96.14;100647.23;3425563;83;98333;-83
2021/01/03 00:44:55;;;;;;;57.07;20.77;;;;;;;0.61;96.27;100655.48;3451281;81;30545;-82
2021/01/03 00:49:56;;;;;;;63.93;22.93;;;;;;;0.64;96.14;100657.02;3446049;83;98728;-83
2021/01/03 00:54:57;;;;;;;60.17;20.67;;;;;;;0.65;96.11;100655.09;3431339;82;33470;-83
2021/01/03 00:59:58;;;;;;;60.47;21.50;;;;;;;0.60;96.02;100660.66;3447202;83;98754;-83
2021/01/03 01:04:59;;;;;;;55.37;21.93;;;;;;;0.66;96.16;100656.72;3449556;83;32559;-83
2021/01/03 01:10:00;;;;;;;57.50;21.37;;;;;;;0.68;96.28;100647.73;3447839;82;98657;-83
2021/01/03 01:15:13;;;;;;;65.47;23.03;;;;;;;0.68;96.22;100643.13;3438321;82;33448;-83
2021/01/03 01:20:14;;;;;;;59.85;23.27;;;;;;;0.70;96.08;100670.69;3445531;82;98194;-83
2021/01/03 01:25:20;;;;;;;65.63;23.87;;;;;;;0.79;96.04;100667.52;3454441;82;33304;-83
2021/01/03 01:30:23;;;;;;;61.10;20.27;;;;;;;0.83;95.96;100663.63;3376710;86;98517;-83
2021/01/03 01:35:29;;;;;;;66.27;22.83;;;;;;;0.82;95.76;100656.63;3456295;82;34401;-83
2021/01/03 01:40:35;;;;;;;58.73;21.93;;;;;;;0.84;95.75;100660.63;3441739;82;98551;-83
2021/01/03 01:45:40;;;;;;;49.70;19.57;;;;;;;0.70;95.61;100654.98;3444976;82;26361;-84
2021/01/03 01:50:49;;;;;;;50.48;19.98;;;;;;;0.72;95.91;100657.63;3426561;82;98610;-84
2021/01/03 01:55:58;;;;;;;48.13;18.40;;;;;;;0.70;95.91;100649.03;3440226;82;33376;-82
2021/01/03 02:01:03;;;;;;;47.67;19.03;;;;;;;0.67;95.86;100640.72;3437775;84;98194;-83
2021/01/03 02:06:12;;;;;;;48.30;17.97;;;;;;;0.62;96.04;100642.97;3435225;83;33261;-83
2021/01/03 02:11:18;;;;;;;50.20;17.37;;;;;;;0.63;96.25;100641.89;3428463;82;98450;-84
2021/01/03 02:16:24;;;;;;;47.95;15.88;;;;;;;0.64;96.16;100648.90;3447111;82;26479;-83
2021/01/03 02:21:50;;;;;;;51.73;17.23;;;;;;;0.61;96.08;100660.33;3432064;82;98486;-83
2021/01/03 02:27:03;;;;;;;54.88;19.20;;;;;;;0.61;96.25;100646.00;3433625;82;98692;-83
2021/01/03 02:32:06;;;;;;;55.97;20.00;;;;;;;0.59;96.25;100636.02;3438021;82;33783;-83
2021/01/03 02:37:18;;;;;;;62.77;23.67;;;;;;;0.57;96.47;100624.70;3428654;82;99010;-83
2021/01/03 02:42:33;;;;;;;61.47;20.27;;;;;;;0.55;96.53;100621.50;3434964;83;33892;-83
2021/01/03 02:47:36;;;;;;;59.25;18.45;;;;;;;0.56;96.62;100617.69;3406273;83;101110;-83
2021/01/03 02:52:40;;;;;;;56.27;19.17;;;;;;;0.57;96.76;100613.86;3337831;86;33341;-83
2021/01/03 02:57:42;;;;;;;68.27;23.40;;;;;;;0.56;96.87;100615.76;3259754;87;98773;-83
2021/01/03 03:02:43;;;;;;;69.40;22.57;;;;;;;0.66;96.80;100615.53;3422530;83;33735;-83
2021/01/03 03:07:44;;;;;;;74.33;24.80;;;;;;;0.64;96.55;100608.81;3415417;83;98606;-82
2021/01/03 03:12:53;;;;;;;69.27;22.97;;;;;;;0.61;96.75;100608.09;3428057;83;33810;-83
2021/01/03 03:17:54;;;;;;;64.40;24.70;;;;;;;0.57;96.71;100597.62;3401847;84;98604;-84
2021/01/03 03:22:55;;;;;;;69.33;24.83;;;;;;;0.61;96.82;100610.23;3420885;84;33442;-83
2021/01/03 03:27:56;;;;;;;68.07;22.43;;;;;;;0.67;96.86;100609.57;3407856;83;98700;-83
2021/01/03 03:32:58;;;;;;;73.70;26.00;;;;;;;0.76;96.77;100611.77;3422973;83;33369;-83
2021/01/03 03:37:59;;;;;;;72.73;23.57;;;;;;;0.75;96.64;100606.92;3407505;83;98669;-83
2021/01/03 03:43:01;;;;;;;70.63;22.50;;;;;;;0.72;96.61;100618.36;3443138;84;34276;-83
2021/01/03 03:48:03;;;;;;;72.93;26.07;;;;;;;0.71;96.67;100606.50;3452037;83;98946;-83
2021/01/03 03:53:04;;;;;;;72.07;26.47;;;;;;;0.70;96.80;100599.46;3450517;82;33629;-83
2021/01/03 03:58:05;;;;;;;71.43;24.23;;;;;;;0.72;96.85;100602.11;3452245;82;98927;-83
2021/01/03 04:03:05;;;;;;;66.23;27.30;;;;;;;0.73;96.82;100583.39;3425580;82;33379;-83
2021/01/03 04:08:06;;;;;;;76.57;26.17;;;;;;;0.80;96.93;100589.73;3450140;83;98904;-84
2021/01/03 04:13:10;;;;;;;83.23;26.27;;;;;;;0.75;96.95;100584.45;3382536;84;31560;-83
2021/01/03 04:18:11;;;;;;;71.23;25.00;;;;;;;0.69;97.16;100584.33;3446886;82;98663;-85
2021/01/03 04:23:12;;;;;;;81.30;26.57;;;;;;;0.69;97.16;100584.33;3437924;82;33773;-84
2021/01/03 04:28:13;;;;;;;70.70;22.83;;;;;;;0.72;97.28;100574.23;3453646;81;98940;-85
2021/01/03 04:33:14;;;;;;;68.13;24.00;;;;;;;0.72;97.47;100580.44;3449846;82;33388;-85
2021/01/03 04:38:15;;;;;;;75.87;22.77;;;;;;;0.72;97.55;100576.37;3447136;83;98755;-85
2021/01/03 04:43:20;;;;;;;72.83;24.03;;;;;;;0.74;97.57;100571.47;3452123;82;31924;-85
2021/01/03 04:48:28;;;;;;;57.43;19.13;;;;;;;0.75;97.70;100573.61;3416011;83;99325;-86
2021/01/03 04:53:50;;;;;;;72.07;23.93;;;;;;;0.76;97.95;100568.43;3431565;83;33929;-87
2021/01/03 04:59:30;;;;;;;61.93;21.63;;;;;;;0.82;97.73;100577.48;3431755;82;98594;-86
2021/01/03 05:05:04;;;;;;;68.40;23.83;;;;;;;0.83;97.87;100566.89;3373149;82;34503;-87
2021/01/03 05:10:22;;;;;;;58.95;19.70;;;;;;;0.85;97.90;100572.01;3430806;83;98527;-89
2021/01/03 05:15:28;;;;;;;68.63;21.43;;;;;;;0.87;97.90;100560.30;3442152;82;33833;-87
2021/01/03 05:20:29;;;;;;;68.20;22.42;;;;;;;0.87;97.93;100558.94;3430646;83;98354;-88
2021/01/03 05:25:46;;;;;;;61.83;20.17;;;;;;;0.78;98.05;100548.05;3440825;82;33836;-89
2021/01/03 05:30:47;;;;;;;58.60;21.83;;;;;;;0.84;98.25;100544.67;3273011;84;98442;-91
2021/01/03 05:35:48;;;;;;;53.07;18.97;;;;;;;0.85;98.33;100548.98;3416901;83;33354;-88
2021/01/03 05:40:51;;;;;;;59.13;22.43;;;;;;;0.86;98.47;100555.45;3417336;83;98449;-88
2021/01/03 05:46:18;;;;;;;54.33;19.13;;;;;;;0.86;98.47;100550.03;3446640;83;33818;-89
2021/01/03 05:51:40;;;;;;;55.90;19.60;;;;;;;0.85;98.53;100547.62;3394029;83;98470;-91
2021/01/03 05:56:43;;;;;;;66.93;23.53;;;;;;;0.86;98.51;100543.80;3452752;82;33340;-90
2021/01/03 06:01:44;;;;;;;55.10;21.20;;;;;;;0.87;98.75;100548.91;3416391;84;98474;-89
2021/01/03 06:06:53;;;;;;;62.80;23.33;;;;;;;0.84;98.75;100540.07;3450189;82;33432;-88
2021/01/03 06:12:02;;;;;;;60.97;22.90;;;;;;;0.86;98.82;100536.48;3458644;82;33806;-89
2021/01/03 06:17:17;;;;;;;89.37;28.57;;;;;;;0.87;98.75;100536.72;3417331;84;98338;-87
2021/01/03 06:22:47;;;;;;;72.40;26.87;;;;;;;0.87;98.82;100539.98;3450654;83;33363;-88
2021/01/03 06:27:49;;;;;;;62.63;21.17;;;;;;;0.88;98.89;100540.25;3446347;83;98704;-88
2021/01/03 06:33:15;;;;;;;69.37;21.47;;;;;;;0.90;98.88;100535.30;3458315;82;33323;-88
2021/01/03 06:38:34;;;;;;;59.00;19.23;;;;;;;0.81;98.83;100535.80;3370610;86;98847;-88
2021/01/03 06:44:20;;;;;;;53.67;18.93;;;;;;;0.84;98.99;100536.55;3451348;83;33279;-90
2021/01/03 06:49:57;;;;;;;57.65;19.70;;;;;;;0.84;98.83;100544.67;3430663;82;98731;-88
2021/01/03 06:55:19;;;;;;;70.10;22.73;;;;;;;0.88;98.94;100542.95;3441456;83;26140;-90
2021/01/03 07:00:48;;;;;;;66.53;21.27;;;;;;;0.90;98.85;100536.66;3432784;83;98425;-88
2021/01/03 07:06:06;;;;;;;55.93;17.63;;;;;;;0.90;98.87;100536.66;3448036;83;34231;-88
2021/01/03 07:11:45;;;;;;;43.33;17.57;;;;;;;0.90;98.83;100537.47;3448766;83;98475;-90
2021/01/03 07:17:08;;;;;;;48.60;16.40;;;;;;;0.92;98.92;100541.20;3467096;83;33558;-89
2021/01/03 07:22:15;;;;;;;50.87;16.83;;;;;;;0.92;98.73;100543.38;3440056;83;33417;-89
2021/01/03 07:27:33;;;;;;;68.83;23.15;;;;;;;0.94;98.86;100547.13;3450208;83;99238;-89
2021/01/03 07:33:13;;;;;;;48.00;15.67;;;;;;;0.99;98.75;100549.71;3444687;83;33409;-89
2021/01/03 07:38:28;;;;;;;45.93;15.93;;;;;;;1.01;98.68;100546.94;3455453;83;98903;-91
2021/01/03 07:43:29;;;;;;;39.90;14.57;;;;;;;0.99;98.63;100541.01;3451677;83;33920;-89
2021/01/03 07:48:40;;;;;;;32.47;11.97;;;;;;;1.01;98.70;100546.13;3436706;83;98447;-88
2021/01/03 07:53:41;;;;;;;33.30;15.60;;;;;;;1.00;98.81;100530.98;3451969;83;34004;-89
2021/01/03 07:58:42;;;;;;;38.63;14.67;;;;;;;1.02;98.77;100539.05;3431986;82;99065;-88
2021/01/03 08:03:43;;;;;;;49.03;17.43;;;;;;;1.05;98.85;100539.77;3469473;83;33398;-89
2021/01/03 08:08:54;;;;;;;50.57;18.37;;;;;;;1.06;98.75;100532.45;3425773;83;98344;-88
2021/01/03 08:14:02;;;;;;;41.23;15.27;;;;;;;1.06;98.82;100535.16;3464241;83;33337;-89
2021/01/03 08:19:07;;;;;;;28.20;12.17;;;;;;;1.06;98.83;100533.80;3459404;83;99042;-87
2021/01/03 08:24:16;;;;;;;28.00;11.80;;;;;;;1.09;98.79;100543.45;3463143;84;34311;-88
2021/01/03 08:29:40;;;;;;;32.80;11.43;;;;;;;1.11;98.80;100549.36;3467376;83;99450;-88
2021/01/03 08:34:42;;;;;;;28.57;11.80;;;;;;;1.14;98.62;100555.52;3447740;84;33390;-86
2021/01/03 08:39:44;;;;;;;32.37;14.73;;;;;;;1.13;98.45;100551.22;3464765;83;100182;-87
2021/01/03 08:44:53;;;;;;;30.87;12.50;;;;;;;1.14;98.63;100535.73;3471434;83;33343;-87
2021/01/03 08:50:09;;;;;;;30.03;12.00;;;;;;;1.14;98.65;100524.89;3462060;83;99056;-87
2021/01/03 08:55:18;;;;;;;31.07;13.53;;;;;;;1.17;98.69;100533.23;3472838;82;33302;-88
2021/01/03 09:00:23;;;;;;;33.80;14.40;;;;;;;1.22;98.66;100534.42;3452070;83;98257;-87
2021/01/03 09:05:30;;;;;;;32.83;13.17;;;;;;;1.21;98.51;100536.89;3476357;82;33835;-87
2021/01/03 09:10:41;;;;;;;38.67;14.63;;;;;;;1.19;98.83;100547.26;3465372;83;98348;-86
2021/01/03 09:15:46;;;;;;;38.13;15.13;;;;;;;1.18;98.70;100548.92;3458880;83;34178;-87
2021/01/03 09:20:52;;;;;;;32.23;14.17;;;;;;;1.15;98.66;100548.98;3450125;83;98341;-86
2021/01/03 09:25:57;;;;;;;35.93;13.80;;;;;;;1.11;98.78;100556.70;3472858;84;33312;-86
2021/01/03 09:31:15;;;;;;;43.35;15.78;;;;;;;1.10;98.88;100549.69;3462253;83;98459;-87
2021/01/03 09:36:57;;;;;;;40.93;14.80;;;;;;;1.13;99.03;100556.64;3475981;83;33371;-87
2021/01/03 09:42:32;;;;;;;34.27;13.00;;;;;;;1.16;98.87;100568.77;3477708;83;33378;-86
2021/01/03 09:47:46;;;;;;;35.23;16.73;;;;;;;1.18;99.21;100585.52;3455491;83;98817;-88
2021/01/03 09:53:17;;;;;;;30.97;13.83;;;;;;;1.20;99.07;100586.80;3447119;83;33411;-86
2021/01/03 09:58:18;;;;;;;30.63;13.90;;;;;;;1.23;98.93;100584.84;3465182;83;98872;-86
2021/01/03 10:03:37;;;;;;;32.50;13.90;;;;;;;1.24;98.66;100590.50;3484844;82;33301;-87
2021/01/03 10:08:39;;;;;;;33.50;13.67;;;;;;;1.24;98.98;100595.92;3528044;81;98311;-86
2021/01/03 10:13:45;;;;;;;26.77;12.20;;;;;;;1.22;98.74;100591.92;3526323;81;33241;-85
2021/01/03 10:18:47;;;;;;;28.87;12.83;;;;;;;1.20;98.72;100591.44;3517523;81;98912;-86
2021/01/03 10:23:58;;;;;;;27.37;13.13;;;;;;;1.18;98.70;100582.26;3520079;81;33978;-85
2021/01/03 10:28:59;;;;;;;30.67;14.57;;;;;;;1.17;98.76;100589.34;3518182;81;98578;-86
2021/01/03 10:34:00;;;;;;;30.30;12.50;;;;;;;1.10;98.68;100583.00;3528366;81;33358;-85
2021/01/03 10:39:03;;;;;;;30.33;14.17;;;;;;;1.13;98.82;100571.55;3517323;81;98600;-85
2021/01/03 10:44:07;;;;;;;28.90;13.03;;;;;;;1.20;98.79;100569.76;3523543;81;33407;-85
2021/01/03 10:49:09;;;;;;;29.00;12.80;;;;;;;1.22;98.76;100569.66;3487657;81;98333;-86
2021/01/03 10:54:20;;;;;;;24.47;12.13;;;;;;;1.20;98.54;100573.25;3534909;82;33401;-85
2021/01/03 10:59:24;;;;;;;26.47;11.80;;;;;;;1.25;98.49;100571.77;3515847;81;98639;-83
2021/01/03 11:04:25;;;;;;;24.10;12.10;;;;;;;1.29;98.41;100553.77;3520077;81;33419;-84
2021/01/03 11:09:34;;;;;;;27.97;13.20;;;;;;;1.33;98.33;100554.75;3505627;81;98595;-81
2021/01/03 11:14:37;;;;;;;27.07;13.00;;;;;;;1.30;98.21;100548.58;3517058;81;33291;-82
2021/01/03 11:19:38;;;;;;;24.53;11.17;;;;;;;1.31;98.23;100539.91;3516258;81;98622;-81
2021/01/03 11:24:40;;;;;;;22.77;11.73;;;;;;;1.32;98.16;100533.37;3495709;81;33328;-82
2021/01/03 11:29:41;;;;;;;25.37;10.70;;;;;;;1.34;98.16;100531.94;3500923;81;98592;-80
2021/01/03 11:34:42;;;;;;;25.03;11.10;;;;;;;1.34;98.10;100527.06;3501885;81;33327;-81
2021/01/03 11:39:43;;;;;;;22.47;10.57;;;;;;;1.40;98.05;100518.48;3511566;81;98629;-82
2021/01/03 11:44:44;;;;;;;20.70;10.10;;;;;;;1.48;98.16;100512.27;3509373;81;33439;-81
2021/01/03 11:49:47;;;;;;;24.63;10.30;;;;;;;1.52;97.81;100518.67;3504675;81;98364;-80
2021/01/03 11:54:47;;;;;;;23.93;11.23;;;;;;;1.50;97.60;100524.17;3514179;81;33308;-80
2021/01/03 11:59:48;;;;;;;26.03;11.97;;;;;;;1.52;97.67;100517.32;3495714;81;98572;-82
2021/01/03 12:04:49;;;;;;;29.93;13.70;;;;;;;1.49;97.59;100505.73;3475240;81;31671;-80
2021/01/03 12:09:50;;;;;;;26.83;12.50;;;;;;;1.58;97.59;100513.34;3463373;82;98701;-81
2021/01/03 12:14:51;;;;;;;23.37;10.93;;;;;;;1.52;97.44;100508.37;3475088;84;30789;-81
2021/01/03 12:19:52;;;;;;;25.20;10.90;;;;;;;1.49;97.40;100509.02;3470638;83;98618;-82
2021/01/03 12:24:53;;;;;;;24.90;10.93;;;;;;;1.38;97.39;100515.27;3477561;83;30529;-81
2021/01/03 12:29:54;;;;;;;26.60;12.77;;;;;;;1.33;97.62;100519.50;3470888;81;98341;-81
2021/01/03 12:34:55;;;;;;;21.63;10.07;;;;;;;1.33;97.66;100514.08;3480292;83;32233;-81
2021/01/03 12:39:56;;;;;;;25.77;12.27;;;;;;;1.35;97.85;100520.52;3472696;82;98336;-81
2021/01/03 12:44:57;;;;;;;25.30;12.37;;;;;;;1.32;97.76;100515.74;3476871;82;32153;-81
2021/01/03 12:49:59;;;;;;;29.12;12.82;;;;;;;1.28;97.99;100512.87;3456983;82;98364;-81
2021/01/03 12:54:59;;;;;;;29.67;13.33;;;;;;;1.31;98.07;100500.59;3469735;83;31791;-82
2021/01/03 13:00:03;;;;;;;33.45;15.18;;;;;;;1.34;98.24;100494.53;3476207;84;98646;-82
2021/01/03 13:05:05;;;;;;;37.03;13.93;;;;;;;1.34;98.13;100491.81;3465877;83;32386;-83
2021/01/03 13:10:08;;;;;;;31.02;11.80;;;;;;;1.32;98.21;100492.70;3503454;81;98881;-82
2021/01/03 13:15:11;;;;;;;27.63;13.47;;;;;;;1.28;98.20;100499.31;3510945;81;31752;-83
2021/01/03 13:20:13;;;;;;;30.67;12.07;;;;;;;1.29;98.36;100498.19;3508754;81;98698;-83
2021/01/03 13:25:14;;;;;;;30.27;13.17;;;;;;;1.35;98.42;100503.71;3513909;81;31886;-82
2021/01/03 13:30:19;;;;;;;35.97;14.40;;;;;;;1.35;98.35;100506.97;3508243;81;98531;-81
2021/01/03 13:35:18;;;;;;;35.23;14.20;;;;;;;1.35;98.47;100476.59;3501171;81;31864;-84
2021/01/03 13:40:19;;;;;;;33.27;15.47;;;;;;;1.34;98.49;100472.84;3437496;83;98203;-82
2021/01/03 13:45:22;;;;;;;36.17;15.17;;;;;;;1.29;98.60;100469.73;3435686;84;31755;-83
2021/01/03 13:50:23;;;;;;;31.97;14.93;;;;;;;1.25;98.81;100461.97;3421342;83;99971;-83
2021/01/03 13:55:24;;;;;;;40.03;15.87;;;;;;;1.24;98.76;100460.92;3435911;84;32387;-83
2021/01/03 14:00:26;;;;;;;35.70;14.60;;;;;;;1.20;98.82;100467.53;3431563;83;98587;-82
2021/01/03 14:05:27;;;;;;;35.03;16.20;;;;;;;1.20;99.14;100457.27;3421183;82;31779;-83
2021/01/03 14:10:31;;;;;;;35.60;15.43;;;;;;;1.21;99.28;100472.41;3465425;83;98658;-82
2021/01/03 14:15:31;;;;;;;34.40;14.70;;;;;;;1.26;99.12;100471.70;3465262;82;31549;-82
2021/01/03 14:20:32;;;;;;;40.57;18.17;;;;;;;1.24;99.27;100459.03;3447843;83;98341;-83
2021/01/03 14:30:37;;;;;;;40.70;15.37;;;;;;;1.26;99.04;100481.76;3762928;75;35422;-84
2021/01/03 14:35:43;;;;;;;39.53;15.63;;;;;;;1.16;99.42;100490.17;3683036;78;35606;-84
2021/01/03 14:40:51;;;;;;;36.60;17.13;;;;;;;1.17;99.54;100480.92;3722137;76;98543;-83
2021/01/03 14:46:06;;;;;;;40.67;17.97;;;;;;;1.17;99.38;100483.63;3712664;78;34967;-83
2021/01/03 14:51:27;;;;;;;47.58;19.50;;;;;;;1.20;99.42;100482.44;3649129;78;98711;-85
2021/01/03 14:57:01;;;;;;;50.33;18.90;;;;;;;1.20;99.42;100483.02;3646069;79;35120;-86
2021/01/03 15:02:11;;;;;;;53.53;21.43;;;;;;;1.26;99.49;100480.41;3648902;79;27365;-84
2021/01/03 15:07:23;;;;;;;47.10;19.00;;;;;;;1.32;99.34;100471.80;3638392;79;98963;-83
2021/01/03 15:12:31;;;;;;;50.17;20.23;;;;;;;1.31;99.34;100475.62;3557873;82;25957;-84
2021/01/03 15:17:49;;;;;;;52.57;19.57;;;;;;;1.34;99.28;100471.48;3556214;81;98644;-86
2021/01/03 15:23:01;;;;;;;41.67;16.73;;;;;;;1.31;99.28;100476.98;3495711;82;35079;-84
2021/01/03 15:28:03;;;;;;;40.92;16.07;;;;;;;1.30;99.48;100478.64;3542371;81;98833;-84
2021/01/03 15:33:09;;;;;;;42.10;17.50;;;;;;;1.35;99.35;100474.43;3527467;81;35522;-85
2021/01/03 15:38:14;;;;;;;46.57;18.37;;;;;;;1.31;99.43;100472.13;3517830;82;98336;-84
2021/01/03 15:43:50;;;;;;;42.03;16.65;;;;;;;1.30;99.43;100475.39;3523849;82;26072;-84
2021/01/03 15:48:56;;;;;;;40.27;16.23;;;;;;;1.32;99.73;100479.92;3489086;81;98608;-85
2021/01/03 15:54:04;;;;;;;43.38;20.55;;;;;;;1.30;99.56;100482.70;3461419;82;26110;-84
2021/01/03 15:59:05;;;;;;;46.20;18.85;;;;;;;1.27;99.54;100484.70;3454052;82;98641;-84
2021/01/03 16:04:10;;;;;;;43.10;18.90;;;;;;;1.26;99.67;100489.89;3446838;83;37791;-84
2021/01/03 16:09:32;;;;;;;61.27;21.63;;;;;;;1.29;99.70;100483.28;3469036;83;98714;-84
2021/01/03 16:14:33;;;;;;;42.83;17.70;;;;;;;1.34;99.49;100482.33;3490319;83;35091;-84
2021/01/03 16:19:50;;;;;;;40.53;16.97;;;;;;;1.41;99.34;100492.96;3446310;82;98728;-85
2021/01/03 16:30:59;;;;;;;37.97;16.87;;;;;;;1.31;99.50;100497.31;3437641;81;98483;-84
2021/01/03 16:36:15;;;;;;;39.00;16.60;;;;;;;1.31;99.58;100497.88;3392040;84;35656;-85
2021/01/03 16:41:47;;;;;;;37.90;14.67;;;;;;;1.30;99.56;100494.91;3336364;85;98363;-84
2021/01/03 16:46:59;;;;;;;39.10;16.90;;;;;;;1.28;99.59;100495.79;3335807;85;98704;-84
2021/01/03 16:52:08;;;;;;;39.90;15.73;;;;;;;1.31;99.54;100495.17;3483999;83;35581;-85
2021/01/03 16:57:54;;;;;;;38.42;17.15;;;;;;;1.31;99.57;100496.53;3445040;83;98722;-84
2021/01/03 17:03:08;;;;;;;39.33;17.40;;;;;;;1.28;99.52;100495.79;3440524;84;35121;-84
2021/01/03 17:08:40;;;;;;;42.80;17.47;;;;;;;1.27;99.66;100499.05;3434239;84;98718;-84
2021/01/03 17:13:56;;;;;;;43.33;19.13;;;;;;;1.30;99.65;100503.04;3380667;85;35092;-84
2021/01/03 17:19:11;;;;;;;75.93;25.37;;;;;;;1.27;99.68;100509.89;3456814;82;99006;-83
2021/01/03 17:24:32;;;;;;;51.30;20.77;;;;;;;1.29;99.71;100506.87;3493464;83;35111;-84
2021/01/03 17:30:03;;;;;;;68.27;21.50;;;;;;;1.26;99.84;100502.09;3483287;83;98880;-85
2021/01/03 17:35:28;;;;;;;104.93;32.63;;;;;;;1.25;100.00;100501.28;3491164;83;35571;-83
2021/01/03 17:40:30;;;;;;;53.47;17.43;;;;;;;1.26;100.00;100489.31;3486404;83;99052;-84
2021/01/03 17:45:38;;;;;;;47.50;17.33;;;;;;;1.29;100.00;100487.89;3492426;83;34999;-82
2021/01/03 17:50:40;;;;;;;44.20;19.30;;;;;;;1.29;100.00;100498.19;3439786;83;98286;-84
2021/01/03 17:55:41;;;;;;;58.60;25.20;;;;;;;1.30;100.00;100504.39;3481827;83;35145;-83
2021/01/03 18:00:42;;;;;;;72.97;23.97;;;;;;;1.29;100.00;100502.80;3477199;83;98766;-84
2021/01/03 18:05:43;;;;;;;50.75;19.25;;;;;;;1.28;100.00;100496.59;3493256;83;35064;-83
2021/01/03 18:10:44;;;;;;;71.50;26.00;;;;;;;1.31;100.00;100507.38;3482895;83;98672;-86
2021/01/03 18:15:46;;;;;;;59.07;23.50;;;;;;;1.38;100.00;100502.28;3489332;83;35604;-86
2021/01/03 18:20:48;;;;;;;51.53;21.63;;;;;;;1.41;100.00;100505.16;3482889;83;98682;-85
2021/01/03 18:25:50;;;;;;;57.93;21.40;;;;;;;1.40;100.00;100505.47;3489243;83;35167;-84
2021/01/03 18:30:51;;;;;;;52.97;22.27;;;;;;;1.43;100.00;100511.64;3517845;82;98855;-84
2021/01/03 18:35:51;;;;;;;65.07;26.47;;;;;;;1.45;100.00;100508.04;3513491;82;35096;-84
2021/01/03 18:40:52;;;;;;;63.57;22.67;;;;;;;1.45;100.00;100508.04;3551240;81;98811;-84
2021/01/03 18:45:53;;;;;;;72.87;26.70;;;;;;;1.42;100.00;100520.89;3564937;81;34970;-84
2021/01/03 18:50:55;;;;;;;54.07;24.33;;;;;;;1.38;100.00;100515.84;3557582;81;98825;-84
2021/01/03 18:55:55;;;;;;;82.03;26.73;;;;;;;1.37;100.00;100522.38;3566505;81;35043;-85
2021/01/03 19:00:56;;;;;;;57.37;23.20;;;;;;;1.34;100.00;100525.71;3554046;81;98683;-86
2021/01/03 19:05:57;;;;;;;83.43;27.97;;;;;;;1.33;100.00;100524.11;3566245;81;35068;-85
2021/01/03 19:10:59;;;;;;;62.93;28.13;;;;;;;1.30;100.00;100516.59;3564683;81;98688;-84
2021/01/03 19:16:00;;;;;;;59.17;24.90;;;;;;;1.31;100.00;100516.86;3570776;81;35546;-85
2021/01/03 19:21:01;;;;;;;58.25;25.02;;;;;;;1.31;100.00;100521.71;3560119;81;98319;-83
2021/01/03 19:26:01;;;;;;;59.90;23.03;;;;;;;1.38;100.00;100521.27;3573530;81;32694;-84
2021/01/03 19:31:03;;;;;;;62.67;22.70;;;;;;;1.46;100.00;100522.65;3534296;81;98763;-85
2021/01/03 19:36:04;;;;;;;54.03;24.33;;;;;;;1.49;100.00;100528.78;3569092;81;33051;-85
2021/01/03 19:41:07;;;;;;;51.67;20.47;;;;;;;1.56;100.00;100539.99;3568859;81;98361;-84
2021/01/03 19:46:08;;;;;;;54.63;21.50;;;;;;;1.60;100.00;100541.52;3567192;81;33190;-85
2021/01/03 19:51:11;;;;;;;56.90;25.70;;;;;;;1.67;100.00;100544.56;3564967;81;98832;-84
2021/01/03 19:56:11;;;;;;;55.57;23.77;;;;;;;1.71;100.00;100554.45;3567920;81;25950;-85
2021/01/03 20:01:20;;;;;;;57.23;23.23;;;;;;;1.71;100.00;100544.96;3480987;81;98617;-84
2021/01/03 20:06:27;;;;;;;66.20;25.07;;;;;;;1.70;100.00;100540.66;3470296;83;32722;-85
2021/01/03 20:11:30;;;;;;;;;;;;;;;1.69;100.00;100551.84;3467616;83;98537;-86
2021/01/03 20:16:41;;;;;;;54.97;22.77;;;;;;;1.57;100.00;100552.44;3477160;83;26553;-85
2021/01/03 20:21:51;;;;;;;50.57;22.10;;;;;;;1.50;100.00;100556.71;3507498;82;98762;-84
2021/01/03 20:26:55;;;;;;;53.93;21.93;;;;;;;1.46;100.00;100555.19;3507724;82;99075;-84
2021/01/03 20:32:01;;;;;;;49.43;20.13;;;;;;;1.52;100.00;100566.14;3517774;82;32854;-84
2021/01/03 20:37:02;;;;;;;48.80;22.50;;;;;;;1.55;100.00;100565.52;3517306;82;99071;-85
2021/01/03 20:42:08;;;;;;;50.87;21.37;;;;;;;1.61;100.00;100564.27;3525235;82;32778;-86
2021/01/03 20:47:13;;;;;;;59.67;25.00;;;;;;;1.66;100.00;100563.31;3521746;82;98504;-85
2021/01/03 20:52:15;;;;;;;49.63;21.00;;;;;;;1.67;100.00;100566.27;3534553;82;26403;-83
2021/01/03 20:57:16;;;;;;;46.20;19.33;;;;;;;1.72;100.00;100569.64;3516359;82;98796;-85
2021/01/03 21:02:17;;;;;;;44.43;21.07;;;;;;;1.78;100.00;100573.81;3519240;82;33238;-87
2021/01/03 21:07:21;;;;;;;54.80;23.87;;;;;;;1.78;100.00;100574.35;3526722;81;98780;-85
2021/01/03 21:12:22;;;;;;;51.73;21.27;;;;;;;1.81;100.00;100572.37;3528000;82;26207;-85
2021/01/03 21:17:23;;;;;;;50.27;20.17;;;;;;;1.82;100.00;100570.71;3514219;82;98483;-85
2021/01/03 21:22:24;;;;;;;46.40;19.80;;;;;;;1.86;100.00;100563.52;3526737;82;32670;-85
2021/01/03 21:27:59;;;;;;;50.53;21.70;;;;;;;1.91;100.00;100568.02;3519001;82;99195;-86
2021/01/03 21:33:20;;;;;;;47.63;19.50;;;;;;;1.94;100.00;100568.73;3528685;82;26253;-85
2021/01/03 21:38:36;;;;;;;49.07;19.37;;;;;;;1.84;99.86;100578.52;3520555;82;98512;-86
2021/01/03 21:44:02;;;;;;;48.50;19.40;;;;;;;1.76;99.88;100567.88;3522642;82;26004;-88
2021/01/03 21:49:20;;;;;;;42.23;17.77;;;;;;;1.68;99.97;100567.31;3527510;82;98315;-87
2021/01/03 21:54:52;;;;;;;37.73;16.87;;;;;;;1.65;100.00;100570.64;3532646;82;26713;-88
2021/01/03 22:00:23;;;;;;;41.03;18.10;;;;;;;1.67;100.00;100570.33;3513299;82;98442;-86
2021/01/03 22:05:59;;;;;;;40.23;17.10;;;;;;;1.70;100.00;100570.50;3517581;82;32671;-84
2021/01/03 22:11:28;;;;;;;40.95;17.05;;;;;;;1.77;100.00;100565.98;3437108;82;98555;-84
2021/01/03 22:16:46;;;;;;;38.77;17.33;;;;;;;1.76;99.85;100561.67;3519941;82;32716;-85
2021/01/03 22:22:26;;;;;;;41.57;19.43;;;;;;;1.75;99.94;100558.72;3529706;82;97997;-85
2021/01/03 22:27:54;;;;;;;42.13;17.90;;;;;;;1.71;99.87;100558.52;3516055;82;98298;-85
2021/01/03 22:33:27;;;;;;;40.70;16.27;;;;;;;1.69;100.00;100563.48;3473032;82;33265;-85
2021/01/03 22:38:33;;;;;;;39.07;17.30;;;;;;;1.70;100.00;100560.22;3439218;84;98585;-86
2021/01/03 22:43:49;;;;;;;38.70;16.15;;;;;;;1.63;100.00;100557.95;3419101;84;25935;-85
2021/01/03 22:49:16;;;;;;;34.57;15.20;;;;;;;1.54;100.00;100553.62;3364354;84;98827;-85
2021/01/03 22:54:43;;;;;;;;;;;;;;;1.49;100.00;100549.13;3285081;88;26015;-85
2021/01/03 22:59:55;;;;;;;55.70;24.97;;;;;;;1.46;100.00;100548.95;3321752;87;84544;-86
2021/01/03 23:05:16;;;;;;;55.40;26.23;;;;;;;1.47;100.00;100550.00;3338541;86;32787;-85
2021/01/03 23:10:28;;;;;;;37.65;16.75;;;;;;;1.48;100.00;100550.24;3375746;86;98708;-85
2021/01/03 23:15:34;;;;;;;32.53;15.73;;;;;;;1.48;100.00;100557.59;3405295;84;32774;-86
2021/01/03 23:20:44;;;;;;;29.52;12.43;;;;;;;1.38;100.00;100551.88;3378943;85;98704;-85
2021/01/03 23:26:14;;;;;;;33.00;14.60;;;;;;;1.33;100.00;100554.75;3396089;84;32762;-85
2021/01/03 23:31:19;;;;;;;27.60;12.67;;;;;;;1.35;100.00;100556.58;3388190;85;98848;-85
2021/01/03 23:36:31;;;;;;;25.23;11.90;;;;;;;1.33;100.00;100553.39;3337723;87;33196;-85
2021/01/03 23:41:40;;;;;;;26.42;11.60;;;;;;;1.34;100.00;100558.24;3337754;87;100558;-85
2021/01/03 23:47:20;;;;;;;30.67;14.57;;;;;;;1.31;100.00;100561.59;3351198;87;32765;-84
2021/01/03 23:58:29;;;;;;;29.70;13.07;;;;;;;1.36;100.00;100555.46;3386506;84;98724;-85
